createdAt,value
2022-10-08T00:01:10.780Z,4.57
2022-10-08T00:03:40.554Z,4.43
2022-10-08T00:06:15.753Z,4.37
2022-10-08T00:08:48.011Z,4.38
2022-10-08T00:11:16.948Z,4.34
2022-10-08T00:13:46.900Z,4.36
2022-10-08T00:16:34.555Z,4.31
2022-10-08T00:19:03.990Z,4.35
2022-10-08T00:21:36.193Z,4.32
2022-10-08T00:24:05.177Z,4.30
2022-10-08T00:26:33.531Z,4.36
2022-10-08T00:29:03.232Z,4.45
2022-10-08T00:31:32.498Z,4.39
2022-10-08T00:34:00.666Z,4.39
2022-10-08T00:36:31.522Z,4.41
2022-10-08T00:39:06.738Z,4.32
2022-10-08T00:41:37.503Z,4.31
2022-10-08T00:44:42.454Z,4.18
2022-10-08T00:47:16.578Z,4.19
2022-10-08T00:49:43.939Z,4.27
2022-10-08T00:52:10.699Z,4.26
2022-10-08T00:54:37.445Z,4.24
2022-10-08T00:57:06.510Z,4.24
2022-10-08T00:59:33.318Z,4.25
2022-10-08T01:02:00.684Z,4.27
2022-10-08T01:04:27.394Z,4.32
2022-10-08T01:07:02.283Z,4.25
2022-10-08T01:09:56.006Z,4.33
2022-10-08T01:12:35.633Z,4.35
2022-10-08T01:15:09.944Z,4.31
2022-10-08T01:17:55.508Z,4.36
2022-10-08T01:20:39.072Z,4.28
2022-10-08T01:23:20.895Z,4.17
2022-10-08T01:26:08.638Z,4.18
2022-10-08T01:28:58.268Z,4.16
2022-10-08T01:31:29.219Z,4.17
2022-10-08T01:34:37.573Z,4.24
2022-10-08T01:37:07.090Z,4.16
2022-10-08T01:39:36.243Z,4.14
2022-10-08T01:42:06.869Z,4.16
2022-10-08T01:44:39.259Z,4.18
2022-10-08T01:47:11.163Z,4.16
2022-10-08T01:49:45.968Z,4.15
2022-10-08T01:52:18.086Z,4.18
2022-10-08T01:54:48.325Z,4.18
2022-10-08T01:57:14.976Z,4.20
2022-10-08T01:59:46.803Z,4.23
2022-10-08T02:02:16.333Z,4.27
2022-10-08T02:04:43.240Z,4.28
2022-10-08T02:07:18.973Z,4.31
2022-10-08T02:09:48.387Z,4.23
2022-10-08T02:12:14.976Z,4.25
2022-10-08T02:14:45.022Z,4.28
2022-10-08T02:17:25.434Z,4.26
2022-10-08T02:20:13.557Z,4.28
2022-10-08T02:23:08.525Z,4.34
2022-10-08T02:25:45.324Z,4.32
2022-10-08T02:28:19.425Z,4.32
2022-10-08T02:30:53.034Z,4.29
2022-10-08T02:33:26.436Z,4.17
2022-10-08T02:35:56.705Z,4.23
2022-10-08T02:38:28.778Z,4.26
2022-10-08T02:40:58.499Z,4.26
2022-10-08T02:43:29.395Z,4.27
2022-10-08T02:46:10.730Z,4.24
2022-10-08T02:48:42.297Z,4.27
2022-10-08T02:51:13.408Z,4.30
2022-10-08T02:53:40.373Z,4.34
2022-10-08T02:56:15.128Z,4.36
2022-10-08T02:58:43.177Z,4.34
2022-10-08T03:01:15.313Z,4.36
2022-10-08T03:03:50.400Z,4.38
2022-10-08T03:06:18.326Z,4.44
2022-10-08T03:08:49.106Z,4.37
2022-10-08T03:11:16.358Z,4.39
2022-10-08T03:13:46.079Z,4.29
2022-10-08T03:16:14.736Z,4.37
2022-10-08T03:18:41.518Z,4.35
2022-10-08T03:21:09.295Z,4.31
2022-10-08T03:23:35.954Z,4.31
2022-10-08T03:26:02.578Z,4.31
2022-10-08T03:28:29.428Z,4.31
2022-10-08T03:30:56.260Z,4.38
2022-10-08T03:33:23.115Z,4.36
2022-10-08T03:35:49.785Z,4.40
2022-10-08T03:38:16.552Z,4.42
2022-10-08T03:40:44.219Z,4.42
2022-10-08T03:43:10.828Z,4.48
2022-10-08T03:45:37.462Z,4.44
2022-10-08T03:48:04.137Z,4.46
2022-10-08T03:50:30.745Z,4.56
2022-10-08T03:52:57.327Z,4.53
2022-10-08T03:55:23.970Z,4.48
2022-10-08T03:57:50.608Z,4.50
2022-10-08T04:00:17.838Z,4.50
2022-10-08T04:02:49.474Z,4.52
2022-10-08T04:05:16.406Z,4.43
2022-10-08T04:07:42.985Z,4.50
2022-10-08T04:10:09.757Z,4.45
2022-10-08T04:12:36.344Z,4.43
2022-10-08T04:15:03.144Z,4.37
2022-10-08T04:17:29.822Z,4.30
2022-10-08T04:19:57.268Z,4.31
2022-10-08T04:22:23.885Z,4.31
2022-10-08T04:24:50.490Z,4.31
2022-10-08T04:27:17.089Z,4.29
2022-10-08T04:29:43.697Z,4.30
2022-10-08T04:32:10.575Z,4.27
2022-10-08T04:34:37.251Z,4.27
2022-10-08T04:37:03.915Z,4.33
2022-10-08T04:39:30.522Z,4.46
2022-10-08T04:41:57.164Z,4.34
2022-10-08T04:44:23.759Z,4.25
2022-10-08T04:46:53.361Z,4.24
2022-10-08T04:49:19.953Z,4.29
2022-10-08T04:51:46.554Z,4.21
2022-10-08T04:54:13.138Z,4.18
2022-10-08T04:56:39.743Z,4.20
2022-10-08T04:59:06.314Z,4.17
2022-10-08T05:01:32.959Z,4.21
2022-10-08T05:03:59.995Z,4.17
2022-10-08T05:06:29.400Z,4.36
2022-10-08T05:08:57.161Z,4.18
2022-10-08T05:11:25.145Z,4.31
2022-10-08T05:13:53.508Z,4.27
2022-10-08T05:16:21.134Z,4.24
2022-10-08T05:18:48.101Z,4.15
2022-10-08T05:21:17.014Z,4.21
2022-10-08T05:23:43.976Z,4.12
2022-10-08T05:26:35.949Z,4.10
2022-10-08T05:29:10.684Z,4.08
2022-10-08T05:31:38.045Z,4.10
2022-10-08T05:34:05.154Z,4.10
2022-10-08T05:36:33.658Z,4.14
2022-10-08T05:39:01.216Z,4.22
2022-10-08T05:41:29.830Z,4.35
2022-10-08T05:43:57.815Z,4.29
2022-10-08T05:46:26.458Z,4.25
2022-10-08T05:48:54.287Z,4.26
2022-10-08T05:51:20.979Z,4.27
2022-10-08T05:53:50.458Z,4.29
2022-10-08T05:56:19.202Z,4.28
2022-10-08T05:58:46.604Z,4.30
2022-10-08T06:01:15.088Z,4.32
2022-10-08T06:03:41.874Z,4.36
2022-10-08T06:06:10.572Z,4.42
2022-10-08T06:08:37.486Z,4.45
2022-10-08T06:11:05.969Z,4.49
2022-10-08T06:13:32.997Z,4.56
2022-10-08T06:16:00.513Z,4.59
2022-10-08T06:18:29.950Z,4.64
2022-10-08T06:20:56.664Z,4.69
2022-10-08T06:23:24.434Z,4.75
2022-10-08T06:25:51.035Z,4.82
2022-10-08T06:28:17.651Z,4.88
2022-10-08T06:30:44.279Z,4.93
2022-10-08T06:33:11.436Z,4.97
2022-10-08T06:35:38.316Z,5.03
2022-10-08T06:38:05.459Z,5.05
2022-10-08T06:40:33.694Z,5.11
2022-10-08T06:43:00.305Z,5.15
2022-10-08T06:45:26.913Z,5.19
2022-10-08T06:47:53.496Z,5.25
2022-10-08T06:50:20.077Z,5.30
2022-10-08T06:52:46.904Z,5.39
2022-10-08T06:55:13.755Z,5.45
2022-10-08T06:57:40.441Z,5.55
2022-10-08T07:00:08.781Z,5.62
2022-10-08T07:02:35.595Z,5.72
2022-10-08T07:05:02.475Z,5.76
2022-10-08T07:07:29.128Z,5.85
2022-10-08T07:09:55.781Z,5.93
2022-10-08T07:12:22.390Z,6.06
2022-10-08T07:14:49.109Z,6.18
2022-10-08T07:17:16.842Z,6.33
2022-10-08T07:19:43.413Z,6.74
2022-10-08T07:22:09.991Z,6.85
2022-10-08T07:24:36.579Z,7.14
2022-10-08T07:27:03.211Z,7.36
2022-10-08T07:29:29.850Z,7.56
2022-10-08T07:31:56.573Z,7.82
2022-10-08T07:34:23.341Z,8.09
2022-10-08T07:36:49.954Z,8.32
2022-10-08T07:39:20.677Z,8.65
2022-10-08T07:41:48.542Z,8.77
2022-10-08T07:44:15.984Z,9.03
2022-10-08T07:46:48.037Z,9.36
2022-10-08T07:49:15.560Z,9.44
2022-10-08T07:51:42.272Z,9.53
2022-10-08T07:54:10.639Z,9.77
2022-10-08T07:56:37.708Z,10.00
2022-10-08T07:59:04.845Z,10.08
2022-10-08T08:01:32.913Z,10.18
2022-10-08T08:04:02.253Z,10.50
2022-10-08T08:06:30.029Z,10.56
2022-10-08T08:08:57.206Z,10.54
2022-10-08T08:11:24.920Z,10.56
2022-10-08T08:13:52.218Z,10.78
2022-10-08T08:16:25.543Z,10.84
2022-10-08T08:18:55.502Z,11.03
2022-10-08T08:21:24.757Z,10.94
2022-10-08T08:23:53.783Z,11.12
2022-10-08T08:26:26.472Z,11.34
2022-10-08T08:28:54.606Z,11.43
2022-10-08T08:31:27.497Z,11.68
2022-10-08T08:33:56.376Z,11.81
2022-10-08T08:36:28.133Z,12.00
2022-10-08T08:38:54.898Z,12.12
2022-10-08T08:41:40.220Z,12.38
2022-10-08T08:44:12.805Z,12.58
2022-10-08T08:46:42.187Z,12.80
2022-10-08T08:49:17.318Z,12.94
2022-10-08T08:51:47.165Z,12.98
2022-10-08T08:54:13.932Z,12.94
2022-10-08T08:56:40.937Z,13.02
2022-10-08T08:59:25.288Z,13.10
2022-10-08T09:01:56.099Z,13.11
2022-10-08T09:04:26.949Z,13.07
2022-10-08T09:06:56.327Z,13.09
2022-10-08T09:09:42.913Z,12.96
2022-10-08T09:12:20.796Z,13.00
2022-10-08T09:14:51.767Z,13.07
2022-10-08T09:17:20.229Z,13.11
2022-10-08T09:19:48.762Z,13.02
2022-10-08T09:22:20.404Z,13.06
2022-10-08T09:24:51.171Z,12.94
2022-10-08T09:27:19.213Z,13.03
2022-10-08T09:29:46.037Z,13.06
2022-10-08T09:32:17.598Z,13.09
2022-10-08T09:34:45.137Z,13.14
2022-10-08T09:37:23.294Z,12.98
2022-10-08T09:40:26.747Z,12.88
2022-10-08T09:43:12.699Z,12.98
2022-10-08T09:45:40.370Z,13.01
2022-10-08T09:48:24.780Z,12.99
2022-10-08T09:50:59.588Z,12.95
2022-10-08T09:53:29.222Z,13.09
2022-10-08T09:56:01.396Z,13.10
2022-10-08T09:58:31.281Z,13.23
2022-10-08T10:01:04.559Z,13.37
2022-10-08T10:03:31.816Z,13.39
2022-10-08T10:05:59.205Z,13.52
2022-10-08T10:08:43.236Z,13.53
2022-10-08T10:11:17.713Z,13.69
2022-10-08T10:13:49.203Z,13.63
2022-10-08T10:16:19.844Z,13.53
2022-10-08T10:18:54.756Z,13.57
2022-10-08T10:22:01.963Z,13.56
2022-10-08T10:24:36.351Z,13.48
2022-10-08T10:27:13.964Z,13.48
2022-10-08T10:29:47.643Z,13.33
2022-10-08T10:32:21.203Z,13.20
2022-10-08T10:34:58.944Z,13.22
2022-10-08T10:37:33.201Z,13.14
2022-10-08T10:40:18.162Z,13.12
2022-10-08T10:42:57.852Z,13.14
2022-10-08T10:45:26.769Z,13.13
2022-10-08T10:47:56.883Z,13.16
2022-10-08T10:50:38.108Z,13.24
2022-10-08T10:53:17.904Z,13.41
2022-10-08T10:56:13.622Z,13.53
2022-10-08T10:59:21.709Z,13.67
2022-10-08T11:01:56.943Z,13.71
2022-10-08T11:04:35.747Z,13.70
2022-10-08T11:07:14.470Z,13.65
2022-10-08T11:09:46.703Z,13.70
2022-10-08T11:12:37.830Z,13.79
2022-10-08T11:15:38.652Z,13.91
2022-10-08T11:18:43.756Z,13.88
2022-10-08T11:21:33.605Z,13.93
2022-10-08T11:24:27.588Z,13.98
2022-10-08T11:27:03.509Z,13.97
2022-10-08T11:29:39.502Z,14.06
2022-10-08T11:32:12.100Z,14.16
2022-10-08T11:34:39.334Z,14.23
2022-10-08T11:37:11.922Z,14.20
2022-10-08T11:39:48.120Z,14.26
2022-10-08T11:42:30.198Z,14.35
2022-10-08T11:45:22.766Z,14.29
2022-10-08T11:47:59.876Z,14.23
2022-10-08T11:50:32.050Z,14.23
2022-10-08T11:53:11.028Z,14.29
2022-10-08T11:55:41.094Z,14.29
2022-10-08T11:58:21.393Z,14.34
2022-10-08T12:00:48.361Z,14.34
2022-10-08T12:03:34.458Z,14.27
2022-10-08T12:06:24.729Z,14.30
2022-10-08T12:09:23.937Z,14.49
2022-10-08T12:11:52.785Z,14.65
2022-10-08T12:14:19.323Z,14.71
2022-10-08T12:16:48.991Z,14.64
2022-10-08T12:19:34.112Z,14.69
2022-10-08T12:22:02.638Z,14.61
2022-10-08T12:24:38.484Z,14.56
2022-10-08T12:27:17.310Z,14.57
2022-10-08T12:30:02.280Z,14.76
2022-10-08T12:32:39.526Z,14.91
2022-10-08T12:35:06.756Z,14.86
2022-10-08T12:37:45.867Z,14.88
2022-10-08T12:40:26.277Z,15.03
2022-10-08T12:43:16.908Z,15.18
2022-10-08T12:45:50.942Z,15.40
2022-10-08T12:48:33.841Z,15.54
2022-10-08T12:51:14.187Z,15.48
2022-10-08T12:53:47.962Z,15.31
2022-10-08T12:56:17.607Z,15.14
2022-10-08T12:58:46.254Z,15.13
2022-10-08T13:01:15.192Z,15.03
2022-10-08T13:03:41.829Z,14.92
2022-10-08T13:06:17.513Z,14.78
2022-10-08T13:08:45.037Z,14.68
2022-10-08T13:11:13.841Z,14.76
2022-10-08T13:13:41.860Z,14.81
2022-10-08T13:16:14.039Z,15.10
2022-10-08T13:18:44.275Z,15.49
2022-10-08T13:21:32.941Z,15.86
2022-10-08T13:24:20.566Z,15.97
2022-10-08T13:26:50.198Z,16.01
2022-10-08T13:29:28.633Z,15.81
2022-10-08T13:32:15.760Z,15.86
2022-10-08T13:34:45.184Z,15.98
2022-10-08T13:37:29.900Z,15.91
2022-10-08T13:39:59.017Z,15.51
2022-10-08T13:42:28.992Z,15.47
2022-10-08T13:44:57.790Z,15.45
2022-10-08T13:47:24.724Z,15.43
2022-10-08T13:49:51.429Z,15.36
2022-10-08T13:52:23.590Z,15.18
2022-10-08T13:54:54.533Z,15.03
2022-10-08T13:57:24.012Z,15.09
2022-10-08T13:59:50.768Z,14.99
2022-10-08T14:02:17.513Z,14.96
2022-10-08T14:04:44.201Z,14.96
2022-10-08T14:07:31.518Z,14.89
2022-10-08T14:10:00.109Z,14.99
2022-10-08T14:12:32.348Z,14.88
2022-10-08T14:15:00.183Z,14.87
2022-10-08T14:17:27.140Z,14.90
2022-10-08T14:19:55.555Z,14.94
2022-10-08T14:22:22.538Z,15.10
2022-10-08T14:24:49.148Z,15.02
2022-10-08T14:27:15.769Z,15.09
2022-10-08T14:29:42.407Z,15.00
2022-10-08T14:32:10.020Z,15.12
2022-10-08T14:34:37.111Z,15.05
2022-10-08T14:37:04.180Z,14.99
2022-10-08T14:39:31.583Z,15.03
2022-10-08T14:41:58.769Z,14.99
2022-10-08T14:44:25.501Z,14.91
2022-10-08T14:46:52.965Z,14.95
2022-10-08T14:49:20.637Z,14.78
2022-10-08T14:51:47.387Z,14.63
2022-10-08T14:54:14.078Z,14.57
2022-10-08T14:56:42.712Z,14.48
2022-10-08T14:59:10.529Z,14.38
2022-10-08T15:01:37.452Z,14.30
2022-10-08T15:04:04.733Z,14.24
2022-10-08T15:06:32.485Z,14.21
2022-10-08T15:08:59.353Z,13.89
2022-10-08T15:11:26.109Z,13.59
2022-10-08T15:13:53.722Z,13.24
2022-10-08T15:16:20.590Z,12.95
2022-10-08T15:18:47.474Z,12.63
2022-10-08T15:21:14.505Z,12.48
2022-10-08T15:23:41.208Z,12.35
2022-10-08T15:26:12.055Z,12.12
2022-10-08T15:28:38.985Z,12.08
2022-10-08T15:31:13.084Z,11.87
2022-10-08T15:33:41.168Z,11.80
2022-10-08T15:36:20.817Z,11.75
2022-10-08T15:38:48.691Z,11.68
2022-10-08T15:41:17.321Z,11.60
2022-10-08T15:43:44.049Z,11.57
2022-10-08T15:46:14.108Z,11.48
2022-10-08T15:48:40.803Z,11.48
2022-10-08T15:51:08.101Z,11.40
2022-10-08T15:53:38.473Z,11.33
2022-10-08T15:56:05.872Z,11.26
2022-10-08T15:58:49.949Z,11.16
2022-10-08T16:01:23.203Z,11.11
2022-10-08T16:03:52.198Z,11.11
2022-10-08T16:06:20.928Z,11.05
2022-10-08T16:08:47.544Z,10.95
2022-10-08T16:11:18.228Z,10.97
2022-10-08T16:13:46.875Z,10.99
2022-10-08T16:16:16.835Z,10.88
2022-10-08T16:18:51.002Z,10.84
2022-10-08T16:21:17.833Z,10.75
2022-10-08T16:23:44.413Z,10.67
2022-10-08T16:26:12.879Z,10.58
2022-10-08T16:28:40.718Z,10.55
2022-10-08T16:31:08.605Z,10.49
2022-10-08T16:33:35.316Z,10.43
2022-10-08T16:36:04.593Z,10.34
2022-10-08T16:38:33.002Z,10.26
2022-10-08T16:41:21.424Z,10.30
2022-10-08T16:43:49.746Z,10.23
2022-10-08T16:46:31.003Z,10.20
2022-10-08T16:49:06.563Z,10.04
2022-10-08T16:51:36.247Z,9.95
2022-10-08T16:54:05.148Z,9.89
2022-10-08T16:56:34.719Z,9.82
2022-10-08T16:59:05.508Z,9.69
2022-10-08T17:01:32.241Z,9.55
2022-10-08T17:03:58.898Z,9.47
2022-10-08T17:06:26.118Z,9.52
2022-10-08T17:08:52.816Z,9.44
2022-10-08T17:11:20.317Z,9.44
2022-10-08T17:13:49.685Z,9.39
2022-10-08T17:16:18.238Z,9.42
2022-10-08T17:18:45.063Z,9.37
2022-10-08T17:21:12.797Z,9.34
2022-10-08T17:23:39.637Z,9.27
2022-10-08T17:26:10.151Z,9.19
2022-10-08T17:28:40.003Z,9.07
2022-10-08T17:31:09.166Z,9.07
2022-10-08T17:33:36.374Z,9.03
2022-10-08T17:36:10.299Z,9.14
2022-10-08T17:38:37.993Z,8.99
2022-10-08T17:41:18.163Z,8.98
2022-10-08T17:43:45.523Z,8.92
2022-10-08T17:46:13.902Z,8.90
2022-10-08T17:48:40.665Z,8.94
2022-10-08T17:51:09.192Z,8.83
2022-10-08T17:53:36.034Z,8.75
2022-10-08T17:56:05.385Z,8.75
2022-10-08T17:58:32.243Z,8.80
2022-10-08T18:01:08.815Z,8.86
2022-10-08T18:03:37.620Z,8.78
2022-10-08T18:06:04.951Z,8.79
2022-10-08T18:08:32.268Z,8.79
2022-10-08T18:11:07.358Z,8.73
2022-10-08T18:13:34.432Z,8.74
2022-10-08T18:16:13.254Z,8.69
2022-10-08T18:18:41.074Z,8.61
2022-10-08T18:21:08.073Z,8.57
2022-10-08T18:23:36.469Z,8.51
2022-10-08T18:26:24.037Z,8.49
2022-10-08T18:28:59.159Z,8.45
2022-10-08T18:31:27.774Z,8.43
2022-10-08T18:33:56.781Z,8.50
2022-10-08T18:36:26.254Z,8.45
2022-10-08T18:38:58.491Z,8.39
2022-10-08T18:41:38.888Z,8.45
2022-10-08T18:44:06.786Z,8.28
2022-10-08T18:46:35.403Z,8.29
2022-10-08T18:49:02.519Z,8.17
2022-10-08T18:51:30.260Z,8.16
2022-10-08T18:53:59.581Z,8.16
2022-10-08T18:56:31.232Z,8.14
2022-10-08T18:58:59.237Z,8.12
2022-10-08T19:01:28.138Z,8.12
2022-10-08T19:03:57.110Z,8.18
2022-10-08T19:06:26.943Z,8.22
2022-10-08T19:08:55.189Z,8.24
2022-10-08T19:11:24.682Z,8.37
2022-10-08T19:13:55.069Z,8.38
2022-10-08T19:16:22.085Z,8.40
2022-10-08T19:18:58.127Z,8.37
2022-10-08T19:21:26.332Z,8.29
2022-10-08T19:23:54.396Z,8.23
2022-10-08T19:26:21.298Z,8.21
2022-10-08T19:28:50.933Z,8.20
2022-10-08T19:31:27.999Z,8.19
2022-10-08T19:34:07.448Z,8.21
2022-10-08T19:36:36.732Z,8.19
2022-10-08T19:39:14.982Z,8.12
2022-10-08T19:41:42.772Z,8.08
2022-10-08T19:44:09.865Z,8.06
2022-10-08T19:46:36.851Z,8.01
2022-10-08T19:49:05.314Z,8.00
2022-10-08T19:51:33.270Z,7.93
2022-10-08T19:54:00.979Z,7.88
2022-10-08T19:56:28.811Z,7.83
2022-10-08T19:58:55.731Z,7.83
2022-10-08T20:01:24.573Z,7.77
2022-10-08T20:03:55.936Z,7.64
2022-10-08T20:06:24.970Z,7.60
2022-10-08T20:08:56.393Z,7.62
2022-10-08T20:11:23.240Z,7.56
2022-10-08T20:13:50.741Z,7.51
2022-10-08T20:16:19.708Z,7.44
2022-10-08T20:18:52.374Z,7.39
2022-10-08T20:21:19.703Z,7.34
2022-10-08T20:23:46.640Z,7.31
2022-10-08T20:26:28.326Z,7.29
2022-10-08T20:29:00.396Z,7.30
2022-10-08T20:31:31.794Z,7.27
2022-10-08T20:34:00.344Z,7.31
2022-10-08T20:36:27.783Z,7.37
2022-10-08T20:38:54.646Z,7.29
2022-10-08T20:41:25.477Z,7.29
2022-10-08T20:43:56.795Z,7.25
2022-10-08T20:46:23.426Z,7.27
2022-10-08T20:48:50.142Z,7.26
2022-10-08T20:51:18.786Z,7.26
2022-10-08T20:53:49.095Z,7.26
2022-10-08T20:56:16.002Z,7.29
2022-10-08T20:58:43.004Z,7.27
2022-10-08T21:01:11.007Z,7.26
2022-10-08T21:03:38.677Z,7.33
2022-10-08T21:06:06.814Z,7.30
2022-10-08T21:08:38.723Z,7.27
2022-10-08T21:11:08.717Z,7.22
2022-10-08T21:13:37.149Z,7.27
2022-10-08T21:16:25.047Z,7.21
2022-10-08T21:18:53.420Z,7.23
2022-10-08T21:21:20.148Z,7.23
2022-10-08T21:23:49.097Z,7.25
2022-10-08T21:26:24.629Z,7.27
2022-10-08T21:28:53.420Z,7.28
2022-10-08T21:31:21.927Z,7.27
2022-10-08T21:33:51.713Z,7.22
2022-10-08T21:36:23.663Z,7.22
2022-10-08T21:38:50.526Z,7.21
2022-10-08T21:41:18.768Z,7.15
2022-10-08T21:43:50.540Z,7.15
2022-10-08T21:46:19.615Z,7.09
2022-10-08T21:48:46.971Z,7.04
2022-10-08T21:51:16.169Z,7.06
2022-10-08T21:53:55.307Z,7.06
2022-10-08T21:56:25.900Z,7.05
2022-10-08T21:58:54.565Z,7.04
2022-10-08T22:01:30.173Z,7.02
2022-10-08T22:04:10.784Z,6.96
2022-10-08T22:06:40.371Z,6.89
2022-10-08T22:09:10.851Z,6.91
2022-10-08T22:11:38.339Z,6.89
2022-10-08T22:14:05.106Z,6.91
2022-10-08T22:16:40.028Z,6.87
2022-10-08T22:19:09.684Z,6.84
2022-10-08T22:21:38.179Z,6.85
2022-10-08T22:24:05.270Z,6.84
2022-10-08T22:26:37.697Z,6.77
2022-10-08T22:29:05.839Z,6.69
2022-10-08T22:31:32.983Z,6.67
2022-10-08T22:34:00.034Z,6.66
2022-10-08T22:36:29.098Z,6.67
2022-10-08T22:38:56.490Z,6.62
2022-10-08T22:41:25.903Z,6.57
2022-10-08T22:43:53.036Z,6.57
2022-10-08T22:46:25.798Z,6.53
2022-10-08T22:48:57.131Z,6.41
2022-10-08T22:51:23.966Z,6.48
2022-10-08T22:53:51.478Z,6.37
2022-10-08T22:56:23.598Z,6.39
2022-10-08T22:58:50.979Z,6.32
2022-10-08T23:01:22.102Z,6.31
2022-10-08T23:03:49.354Z,6.23
2022-10-08T23:06:23.785Z,6.13
2022-10-08T23:09:01.924Z,6.15
2022-10-08T23:11:29.646Z,6.09
2022-10-08T23:13:57.819Z,6.08
2022-10-08T23:16:26.173Z,6.07
2022-10-08T23:19:01.842Z,6.03
2022-10-08T23:21:28.715Z,6.07
2022-10-08T23:23:56.255Z,6.01
2022-10-08T23:26:23.871Z,5.96
2022-10-08T23:28:53.405Z,5.95
2022-10-08T23:31:22.780Z,5.89
2022-10-08T23:33:51.561Z,5.82
2022-10-08T23:36:23.334Z,5.85
2022-10-08T23:38:50.503Z,5.84
2022-10-08T23:41:18.367Z,5.89
2022-10-08T23:43:47.334Z,5.78
2022-10-08T23:46:17.380Z,5.76
2022-10-08T23:48:44.204Z,5.74
2022-10-08T23:51:11.998Z,5.77
2022-10-08T23:53:39.333Z,5.79
2022-10-08T23:56:06.379Z,5.77
2022-10-08T23:58:33.079Z,5.74
